Terminal Aerodrome Forecast
Issued by NWS Boston, MA

Current Version | Previous Version | Text Only | Print | Product List | Glossary On
Versions: 1 2 3 4 5 6 7 8 9 10 11 12 13 14 15 16 17 18 19 20 21 22 23 24 25 26 27 28 29 30 31 32 33 34 35 36 37 38 39 40 41 42
000 FTUS41 KBOX 232329 TAFPVD TAF KPVD 232329Z 2400/2424 15006KT P6SM OVC100 FM240900 15008KT 5SM -RA BR OVC040 FM241100 15011G32KT 3SM RA BR OVC025 WS020/17040KT FM241200 15012G37KT 2SM +RA BR OVC008 WS020/18045KT FM241500 18014G33KT 3SM RA BR OVC010 WS020/19050KT=

USA.gov is the U.S. government's official web portal to all federal, state and local government web resources and services.